Hauptseite
METAR-TAF:

METAR-TAF

Flughäfen :

Bergamo, Italien

Flughafen Bergamo

Breite: 45-40N, Länge: 009-42E, Höhe: 238 m

Beobachtung

Neuester Wetterbericht von vor 40 Minuten, um 19:20 UTC
Wind 2 kt aus unterschiedlichen Richtungen
Temperatur 5°C
Luftfeuchtigkeit 65%
Luftdruck 1014 hPa
Sichtweite 10 km oder mehr
keine Wolken unter 1500 m und keine Kumulonimbus oder Gewitterwolken

METAR: LIME 221920Z VRB02KT CAVOK 05/M01 Q1014 NOSIG

Zeit: 21:00 (20:00 UTC)

Prognose

Neuester Wetterbericht von vor 3 Stunden und 0 Minuten, um 17:00 UTC
Gültige Prognose vom 22 um 18 UTC bis 23 um 18 UTC
Wind 5 kt aus unterschiedlichen Richtungen
Sichtweite 10 km oder mehr
keine Wolken unter 1500 m und keine Kumulonimbus oder Gewitterwolken

TAF: LIME 221700Z 2218/2318 VRB05KT CAVOK

Wetterbeobachtungen und Prognosen von mehr als 4000 Flughäfen (METAR und TAF Bericht).

Die verfügbaren Stationen werden durch gelbe und rote Markierungen auf der Karte dargestellt.

Führen Sie die Maus auf sie, um den Namen der Station zu sehen.

Darauf klicken, um die Beobachtung von Wetterbeobachtungen und Prognosen zu sehen.

Um die Karte zu ändern : klicken Sie auf den grünen Tasten mit einem schwarzen Kreuz Zum Vergrößern, auf den grünen Button mit einem Gedankenstrich zu verkleinern, oder auf die grünen Pfeile für benachbarte Karten.


METAR-TAF: